sensor_id;sensor_type;location;lat;lon;timestamp;P1;durP1;ratioP1;P2;durP2;ratioP2
2404;SDS011;1213;43.206;27.922;2023-09-19T00:00:22;9.83;;;5.87;;
2404;SDS011;1213;43.206;27.922;2023-09-19T00:02:54;10.60;;;5.93;;
2404;SDS011;1213;43.206;27.922;2023-09-19T00:05:28;11.03;;;5.63;;
2404;SDS011;1213;43.206;27.922;2023-09-19T00:07:54;8.60;;;5.77;;
2404;SDS011;1213;43.206;27.922;2023-09-19T00:10:25;8.03;;;6.43;;
2404;SDS011;1213;43.206;27.922;2023-09-19T00:12:52;7.43;;;6.30;;
2404;SDS011;1213;43.206;27.922;2023-09-19T00:15:24;12.73;;;5.90;;
2404;SDS011;1213;43.206;27.922;2023-09-19T00:17:54;9.17;;;5.43;;
2404;SDS011;1213;43.206;27.922;2023-09-19T00:20:20;7.50;;;5.53;;
2404;SDS011;1213;43.206;27.922;2023-09-19T00:22:48;10.33;;;5.87;;
2404;SDS011;1213;43.206;27.922;2023-09-19T00:25:15;9.40;;;5.93;;
2404;SDS011;1213;43.206;27.922;2023-09-19T00:27:41;10.23;;;5.07;;
2404;SDS011;1213;43.206;27.922;2023-09-19T00:30:07;9.00;;;5.67;;
2404;SDS011;1213;43.206;27.922;2023-09-19T00:32:49;6.57;;;5.47;;
2404;SDS011;1213;43.206;27.922;2023-09-19T00:35:20;9.40;;;5.90;;
2404;SDS011;1213;43.206;27.922;2023-09-19T00:37:46;6.77;;;5.57;;
2404;SDS011;1213;43.206;27.922;2023-09-19T00:40:12;7.80;;;5.70;;
2404;SDS011;1213;43.206;27.922;2023-09-19T00:42:38;11.27;;;5.30;;
2404;SDS011;1213;43.206;27.922;2023-09-19T00:45:05;9.30;;;5.50;;
2404;SDS011;1213;43.206;27.922;2023-09-19T00:47:32;10.40;;;5.93;;
2404;SDS011;1213;43.206;27.922;2023-09-19T00:49:57;7.90;;;5.53;;
2404;SDS011;1213;43.206;27.922;2023-09-19T00:52:23;7.53;;;6.07;;
2404;SDS011;1213;43.206;27.922;2023-09-19T00:54:49;8.00;;;5.93;;
2404;SDS011;1213;43.206;27.922;2023-09-19T00:57:15;8.70;;;5.70;;
2404;SDS011;1213;43.206;27.922;2023-09-19T00:59:44;9.40;;;5.20;;
2404;SDS011;1213;43.206;27.922;2023-09-19T01:02:13;10.10;;;5.20;;
2404;SDS011;1213;43.206;27.922;2023-09-19T01:04:40;7.13;;;5.43;;
2404;SDS011;1213;43.206;27.922;2023-09-19T01:07:06;9.97;;;6.00;;
2404;SDS011;1213;43.206;27.922;2023-09-19T01:09:33;8.30;;;6.90;;
2404;SDS011;1213;43.206;27.922;2023-09-19T01:12:00;9.10;;;6.07;;
2404;SDS011;1213;43.206;27.922;2023-09-19T01:14:42;9.10;;;6.40;;
2404;SDS011;1213;43.206;27.922;2023-09-19T01:17:23;9.07;;;6.20;;
2404;SDS011;1213;43.206;27.922;2023-09-19T01:30:39;9.33;;;6.47;;
2404;SDS011;1213;43.206;27.922;2023-09-19T01:33:08;8.90;;;6.00;;
2404;SDS011;1213;43.206;27.922;2023-09-19T01:35:44;7.47;;;6.10;;
2404;SDS011;1213;43.206;27.922;2023-09-19T01:38:10;9.50;;;6.00;;
2404;SDS011;1213;43.206;27.922;2023-09-19T01:41:00;12.30;;;6.00;;
2404;SDS011;1213;43.206;27.922;2023-09-19T01:43:27;11.33;;;6.87;;
2404;SDS011;1213;43.206;27.922;2023-09-19T01:46:04;7.47;;;5.87;;
2404;SDS011;1213;43.206;27.922;2023-09-19T01:51:10;8.13;;;5.80;;
2404;SDS011;1213;43.206;27.922;2023-09-19T01:53:50;14.63;;;6.50;;
2404;SDS011;1213;43.206;27.922;2023-09-19T01:56:21;10.10;;;5.33;;
2404;SDS011;1213;43.206;27.922;2023-09-19T01:58:52;12.93;;;6.60;;
2404;SDS011;1213;43.206;27.922;2023-09-19T02:01:20;8.93;;;5.77;;
2404;SDS011;1213;43.206;27.922;2023-09-19T02:03:47;6.70;;;5.70;;
2404;SDS011;1213;43.206;27.922;2023-09-19T02:06:16;12.17;;;6.87;;
2404;SDS011;1213;43.206;27.922;2023-09-19T02:08:43;10.03;;;6.50;;
2404;SDS011;1213;43.206;27.922;2023-09-19T02:11:08;15.07;;;5.70;;
2404;SDS011;1213;43.206;27.922;2023-09-19T02:13:33;7.10;;;6.40;;
2404;SDS011;1213;43.206;27.922;2023-09-19T02:15:59;7.13;;;5.70;;
2404;SDS011;1213;43.206;27.922;2023-09-19T02:18:24;9.00;;;6.40;;
2404;SDS011;1213;43.206;27.922;2023-09-19T02:20:49;10.50;;;7.60;;
2404;SDS011;1213;43.206;27.922;2023-09-19T02:23:16;9.50;;;6.57;;
2404;SDS011;1213;43.206;27.922;2023-09-19T02:25:41;8.60;;;6.60;;
2404;SDS011;1213;43.206;27.922;2023-09-19T02:28:08;10.30;;;7.17;;
2404;SDS011;1213;43.206;27.922;2023-09-19T02:30:34;12.50;;;6.90;;
2404;SDS011;1213;43.206;27.922;2023-09-19T02:32:59;7.70;;;6.90;;
2404;SDS011;1213;43.206;27.922;2023-09-19T02:35:28;10.63;;;7.67;;
2404;SDS011;1213;43.206;27.922;2023-09-19T02:37:54;11.03;;;6.90;;
2404;SDS011;1213;43.206;27.922;2023-09-19T02:40:19;8.57;;;6.63;;
2404;SDS011;1213;43.206;27.922;2023-09-19T02:42:45;9.77;;;7.20;;
2404;SDS011;1213;43.206;27.922;2023-09-19T02:45:12;8.30;;;6.63;;
2404;SDS011;1213;43.206;27.922;2023-09-19T02:47:37;9.40;;;6.60;;
2404;SDS011;1213;43.206;27.922;2023-09-19T02:50:02;8.80;;;6.83;;
2404;SDS011;1213;43.206;27.922;2023-09-19T02:52:28;10.30;;;7.67;;
2404;SDS011;1213;43.206;27.922;2023-09-19T02:54:54;10.00;;;6.60;;
2404;SDS011;1213;43.206;27.922;2023-09-19T02:57:19;8.20;;;6.50;;
2404;SDS011;1213;43.206;27.922;2023-09-19T02:59:45;10.60;;;7.03;;
2404;SDS011;1213;43.206;27.922;2023-09-19T03:02:10;9.67;;;7.43;;
2404;SDS011;1213;43.206;27.922;2023-09-19T03:04:35;8.40;;;6.50;;
2404;SDS011;1213;43.206;27.922;2023-09-19T03:07:01;12.30;;;7.00;;
2404;SDS011;1213;43.206;27.922;2023-09-19T03:09:26;17.90;;;9.07;;
2404;SDS011;1213;43.206;27.922;2023-09-19T03:11:52;13.10;;;7.40;;
2404;SDS011;1213;43.206;27.922;2023-09-19T03:14:17;11.13;;;7.70;;
2404;SDS011;1213;43.206;27.922;2023-09-19T03:16:45;11.10;;;7.70;;
2404;SDS011;1213;43.206;27.922;2023-09-19T03:19:10;11.00;;;8.27;;
2404;SDS011;1213;43.206;27.922;2023-09-19T03:21:37;9.90;;;7.30;;
2404;SDS011;1213;43.206;27.922;2023-09-19T03:24:04;9.50;;;7.40;;
2404;SDS011;1213;43.206;27.922;2023-09-19T03:26:29;11.93;;;8.60;;
2404;SDS011;1213;43.206;27.922;2023-09-19T03:28:54;9.43;;;7.80;;
2404;SDS011;1213;43.206;27.922;2023-09-19T03:31:20;21.00;;;8.93;;
2404;SDS011;1213;43.206;27.922;2023-09-19T03:33:45;18.43;;;8.77;;
2404;SDS011;1213;43.206;27.922;2023-09-19T03:36:10;10.83;;;8.40;;
2404;SDS011;1213;43.206;27.922;2023-09-19T03:38:38;14.73;;;9.30;;
2404;SDS011;1213;43.206;27.922;2023-09-19T03:41:03;15.37;;;8.77;;
2404;SDS011;1213;43.206;27.922;2023-09-19T03:43:29;15.00;;;8.57;;
2404;SDS011;1213;43.206;27.922;2023-09-19T03:45:54;13.07;;;9.97;;
2404;SDS011;1213;43.206;27.922;2023-09-19T03:48:19;11.53;;;9.53;;
2404;SDS011;1213;43.206;27.922;2023-09-19T03:50:46;13.10;;;10.20;;
2404;SDS011;1213;43.206;27.922;2023-09-19T03:53:11;16.67;;;9.40;;
2404;SDS011;1213;43.206;27.922;2023-09-19T03:55:37;16.43;;;11.27;;
2404;SDS011;1213;43.206;27.922;2023-09-19T03:58:03;13.67;;;9.60;;
2404;SDS011;1213;43.206;27.922;2023-09-19T04:00:29;12.50;;;10.40;;
2404;SDS011;1213;43.206;27.922;2023-09-19T04:02:54;15.30;;;10.60;;
2404;SDS011;1213;43.206;27.922;2023-09-19T04:05:21;19.77;;;10.57;;
2404;SDS011;1213;43.206;27.922;2023-09-19T04:07:46;16.37;;;11.40;;
2404;SDS011;1213;43.206;27.922;2023-09-19T04:10:12;16.13;;;12.60;;
2404;SDS011;1213;43.206;27.922;2023-09-19T04:12:39;20.03;;;11.57;;
2404;SDS011;1213;43.206;27.922;2023-09-19T04:15:05;18.43;;;12.07;;
2404;SDS011;1213;43.206;27.922;2023-09-19T04:17:31;19.10;;;10.30;;
2404;SDS011;1213;43.206;27.922;2023-09-19T04:19:58;22.20;;;10.40;;
2404;SDS011;1213;43.206;27.922;2023-09-19T04:22:23;19.23;;;11.47;;
2404;SDS011;1213;43.206;27.922;2023-09-19T04:24:48;23.30;;;11.30;;
2404;SDS011;1213;43.206;27.922;2023-09-19T04:27:13;21.17;;;12.10;;
2404;SDS011;1213;43.206;27.922;2023-09-19T04:29:39;17.80;;;11.20;;
2404;SDS011;1213;43.206;27.922;2023-09-19T04:32:06;19.30;;;12.33;;
2404;SDS011;1213;43.206;27.922;2023-09-19T04:34:32;20.30;;;11.00;;
2404;SDS011;1213;43.206;27.922;2023-09-19T04:36:59;23.37;;;9.80;;
2404;SDS011;1213;43.206;27.922;2023-09-19T04:39:25;33.83;;;11.70;;
2404;SDS011;1213;43.206;27.922;2023-09-19T04:41:51;15.67;;;9.20;;
2404;SDS011;1213;43.206;27.922;2023-09-19T04:44:17;23.50;;;10.60;;
2404;SDS011;1213;43.206;27.922;2023-09-19T04:46:43;17.43;;;12.13;;
2404;SDS011;1213;43.206;27.922;2023-09-19T04:49:11;17.80;;;11.43;;
2404;SDS011;1213;43.206;27.922;2023-09-19T04:51:37;15.33;;;10.40;;
2404;SDS011;1213;43.206;27.922;2023-09-19T04:54:03;17.97;;;11.47;;
2404;SDS011;1213;43.206;27.922;2023-09-19T04:56:28;16.33;;;12.07;;
2404;SDS011;1213;43.206;27.922;2023-09-19T04:58:54;19.90;;;11.67;;
2404;SDS011;1213;43.206;27.922;2023-09-19T05:01:19;18.27;;;11.43;;
2404;SDS011;1213;43.206;27.922;2023-09-19T05:03:48;21.53;;;11.83;;
2404;SDS011;1213;43.206;27.922;2023-09-19T05:06:17;17.43;;;12.20;;
2404;SDS011;1213;43.206;27.922;2023-09-19T05:08:43;24.60;;;12.67;;
2404;SDS011;1213;43.206;27.922;2023-09-19T05:11:08;24.33;;;11.23;;
2404;SDS011;1213;43.206;27.922;2023-09-19T05:13:34;20.13;;;13.40;;
2404;SDS011;1213;43.206;27.922;2023-09-19T05:16:00;35.03;;;26.90;;
2404;SDS011;1213;43.206;27.922;2023-09-19T05:18:27;19.67;;;12.27;;
2404;SDS011;1213;43.206;27.922;2023-09-19T05:20:52;21.77;;;12.23;;
2404;SDS011;1213;43.206;27.922;2023-09-19T05:23:18;18.40;;;12.70;;
2404;SDS011;1213;43.206;27.922;2023-09-19T05:25:46;20.90;;;13.83;;
2404;SDS011;1213;43.206;27.922;2023-09-19T05:28:11;26.80;;;12.70;;
2404;SDS011;1213;43.206;27.922;2023-09-19T05:30:40;22.87;;;13.57;;
2404;SDS011;1213;43.206;27.922;2023-09-19T05:33:06;18.53;;;12.67;;
2404;SDS011;1213;43.206;27.922;2023-09-19T05:35:31;18.20;;;13.00;;
2404;SDS011;1213;43.206;27.922;2023-09-19T05:37:57;16.90;;;12.47;;
2404;SDS011;1213;43.206;27.922;2023-09-19T05:40:23;18.40;;;12.73;;
2404;SDS011;1213;43.206;27.922;2023-09-19T05:42:48;20.70;;;13.13;;
2404;SDS011;1213;43.206;27.922;2023-09-19T05:45:15;25.93;;;14.77;;
2404;SDS011;1213;43.206;27.922;2023-09-19T05:47:47;19.40;;;14.13;;
2404;SDS011;1213;43.206;27.922;2023-09-19T05:50:13;28.67;;;15.30;;
2404;SDS011;1213;43.206;27.922;2023-09-19T05:52:40;22.37;;;13.30;;
2404;SDS011;1213;43.206;27.922;2023-09-19T05:55:06;20.97;;;13.00;;
2404;SDS011;1213;43.206;27.922;2023-09-19T05:57:32;17.77;;;13.43;;
2404;SDS011;1213;43.206;27.922;2023-09-19T05:59:58;46.33;;;16.77;;
2404;SDS011;1213;43.206;27.922;2023-09-19T06:02:23;21.47;;;13.40;;
2404;SDS011;1213;43.206;27.922;2023-09-19T06:04:48;17.97;;;13.30;;
2404;SDS011;1213;43.206;27.922;2023-09-19T06:07:14;22.70;;;14.07;;
2404;SDS011;1213;43.206;27.922;2023-09-19T06:09:41;21.80;;;15.00;;
2404;SDS011;1213;43.206;27.922;2023-09-19T06:12:07;21.87;;;14.17;;
2404;SDS011;1213;43.206;27.922;2023-09-19T06:14:32;20.20;;;14.20;;
2404;SDS011;1213;43.206;27.922;2023-09-19T06:16:57;21.73;;;12.47;;
2404;SDS011;1213;43.206;27.922;2023-09-19T06:19:22;17.83;;;13.40;;
2404;SDS011;1213;43.206;27.922;2023-09-19T06:21:50;20.07;;;12.93;;
2404;SDS011;1213;43.206;27.922;2023-09-19T06:24:17;14.53;;;11.30;;
2404;SDS011;1213;43.206;27.922;2023-09-19T06:26:44;15.63;;;12.10;;
2404;SDS011;1213;43.206;27.922;2023-09-19T06:29:09;15.80;;;13.30;;
2404;SDS011;1213;43.206;27.922;2023-09-19T06:31:35;21.37;;;15.60;;
2404;SDS011;1213;43.206;27.922;2023-09-19T06:34:00;18.40;;;12.63;;
2404;SDS011;1213;43.206;27.922;2023-09-19T06:36:27;15.60;;;11.40;;
2404;SDS011;1213;43.206;27.922;2023-09-19T06:38:53;16.67;;;13.17;;
2404;SDS011;1213;43.206;27.922;2023-09-19T06:41:18;19.00;;;11.03;;
2404;SDS011;1213;43.206;27.922;2023-09-19T06:43:44;12.67;;;11.10;;
2404;SDS011;1213;43.206;27.922;2023-09-19T06:46:09;17.87;;;10.20;;
2404;SDS011;1213;43.206;27.922;2023-09-19T06:48:35;14.13;;;11.00;;
2404;SDS011;1213;43.206;27.922;2023-09-19T06:51:00;14.60;;;10.40;;
2404;SDS011;1213;43.206;27.922;2023-09-19T06:53:30;12.43;;;10.30;;
2404;SDS011;1213;43.206;27.922;2023-09-19T06:55:57;15.73;;;10.83;;
2404;SDS011;1213;43.206;27.922;2023-09-19T06:58:22;13.43;;;9.70;;
2404;SDS011;1213;43.206;27.922;2023-09-19T07:00:47;10.53;;;9.33;;
2404;SDS011;1213;43.206;27.922;2023-09-19T07:03:15;17.47;;;10.50;;
2404;SDS011;1213;43.206;27.922;2023-09-19T07:05:43;14.27;;;9.63;;
2404;SDS011;1213;43.206;27.922;2023-09-19T07:08:09;13.03;;;8.77;;
2404;SDS011;1213;43.206;27.922;2023-09-19T07:10:37;15.53;;;8.30;;
2404;SDS011;1213;43.206;27.922;2023-09-19T07:13:03;14.73;;;8.70;;
2404;SDS011;1213;43.206;27.922;2023-09-19T07:15:29;11.23;;;7.90;;
2404;SDS011;1213;43.206;27.922;2023-09-19T07:17:58;8.67;;;7.40;;
2404;SDS011;1213;43.206;27.922;2023-09-19T07:20:26;9.97;;;7.70;;
2404;SDS011;1213;43.206;27.922;2023-09-19T07:22:52;9.30;;;6.87;;
2404;SDS011;1213;43.206;27.922;2023-09-19T07:25:19;10.00;;;6.07;;
2404;SDS011;1213;43.206;27.922;2023-09-19T07:27:45;8.20;;;5.80;;
2404;SDS011;1213;43.206;27.922;2023-09-19T07:30:10;5.80;;;5.10;;
2404;SDS011;1213;43.206;27.922;2023-09-19T07:32:36;6.17;;;4.60;;
2404;SDS011;1213;43.206;27.922;2023-09-19T07:35:02;7.13;;;5.53;;
2404;SDS011;1213;43.206;27.922;2023-09-19T07:37:29;7.07;;;6.37;;
2404;SDS011;1213;43.206;27.922;2023-09-19T07:39:56;5.93;;;4.87;;
2404;SDS011;1213;43.206;27.922;2023-09-19T07:42:22;8.37;;;5.87;;
2404;SDS011;1213;43.206;27.922;2023-09-19T07:44:48;4.93;;;4.03;;
2404;SDS011;1213;43.206;27.922;2023-09-19T07:47:15;5.67;;;5.10;;
2404;SDS011;1213;43.206;27.922;2023-09-19T07:49:41;5.47;;;4.80;;
2404;SDS011;1213;43.206;27.922;2023-09-19T07:52:08;43.17;;;30.90;;
2404;SDS011;1213;43.206;27.922;2023-09-19T07:54:34;12.13;;;7.10;;
2404;SDS011;1213;43.206;27.922;2023-09-19T07:57:03;24.83;;;9.90;;
2404;SDS011;1213;43.206;27.922;2023-09-19T07:59:29;9.17;;;6.67;;
2404;SDS011;1213;43.206;27.922;2023-09-19T08:01:54;5.10;;;4.70;;
2404;SDS011;1213;43.206;27.922;2023-09-19T08:04:19;4.50;;;4.10;;
2404;SDS011;1213;43.206;27.922;2023-09-19T08:06:45;6.60;;;5.00;;
2404;SDS011;1213;43.206;27.922;2023-09-19T08:09:10;5.20;;;4.70;;
2404;SDS011;1213;43.206;27.922;2023-09-19T08:11:37;8.57;;;4.27;;
2404;SDS011;1213;43.206;27.922;2023-09-19T08:14:04;5.50;;;4.40;;
2404;SDS011;1213;43.206;27.922;2023-09-19T08:16:30;5.90;;;5.33;;
2404;SDS011;1213;43.206;27.922;2023-09-19T08:18:56;4.30;;;3.90;;
2404;SDS011;1213;43.206;27.922;2023-09-19T08:21:21;4.90;;;4.33;;
2404;SDS011;1213;43.206;27.922;2023-09-19T08:23:48;4.07;;;3.77;;
2404;SDS011;1213;43.206;27.922;2023-09-19T08:26:13;5.70;;;4.30;;
2404;SDS011;1213;43.206;27.922;2023-09-19T08:28:39;8.13;;;3.67;;
2404;SDS011;1213;43.206;27.922;2023-09-19T08:31:07;11.30;;;5.40;;
2404;SDS011;1213;43.206;27.922;2023-09-19T08:33:34;9.03;;;6.33;;
2404;SDS011;1213;43.206;27.922;2023-09-19T08:36:00;5.27;;;4.77;;
2404;SDS011;1213;43.206;27.922;2023-09-19T08:38:25;8.23;;;4.67;;
2404;SDS011;1213;43.206;27.922;2023-09-19T08:40:56;5.00;;;3.93;;
2404;SDS011;1213;43.206;27.922;2023-09-19T08:43:22;6.67;;;6.00;;
2404;SDS011;1213;43.206;27.922;2023-09-19T08:45:47;10.23;;;6.83;;
2404;SDS011;1213;43.206;27.922;2023-09-19T08:48:23;23.40;;;17.33;;
2404;SDS011;1213;43.206;27.922;2023-09-19T08:51:25;6.00;;;5.03;;
2404;SDS011;1213;43.206;27.922;2023-09-19T08:56:11;5.77;;;3.67;;
2404;SDS011;1213;43.206;27.922;2023-09-19T08:59:20;6.67;;;4.20;;
2404;SDS011;1213;43.206;27.922;2023-09-19T09:01:30;7.87;;;4.33;;
2404;SDS011;1213;43.206;27.922;2023-09-19T09:03:57;4.40;;;4.00;;
2404;SDS011;1213;43.206;27.922;2023-09-19T09:06:23;5.10;;;4.60;;
2404;SDS011;1213;43.206;27.922;2023-09-19T09:08:52;3.77;;;3.50;;
2404;SDS011;1213;43.206;27.922;2023-09-19T09:11:18;5.50;;;4.27;;
2404;SDS011;1213;43.206;27.922;2023-09-19T09:13:44;4.73;;;3.90;;
2404;SDS011;1213;43.206;27.922;2023-09-19T09:16:10;5.13;;;4.67;;
2404;SDS011;1213;43.206;27.922;2023-09-19T09:18:35;7.53;;;4.30;;
2404;SDS011;1213;43.206;27.922;2023-09-19T09:21:01;4.27;;;3.87;;
2404;SDS011;1213;43.206;27.922;2023-09-19T09:23:26;4.43;;;4.03;;
2404;SDS011;1213;43.206;27.922;2023-09-19T09:25:54;3.47;;;3.00;;
2404;SDS011;1213;43.206;27.922;2023-09-19T09:28:21;12.43;;;11.10;;
2404;SDS011;1213;43.206;27.922;2023-09-19T09:30:47;34.30;;;24.20;;
2404;SDS011;1213;43.206;27.922;2023-09-19T09:33:13;6.97;;;6.27;;
2404;SDS011;1213;43.206;27.922;2023-09-19T09:35:48;4.37;;;4.03;;
2404;SDS011;1213;43.206;27.922;2023-09-19T09:38:24;6.87;;;5.30;;
2404;SDS011;1213;43.206;27.922;2023-09-19T09:40:53;5.97;;;5.47;;
2404;SDS011;1213;43.206;27.922;2023-09-19T09:43:25;4.63;;;4.20;;
2404;SDS011;1213;43.206;27.922;2023-09-19T09:45:57;4.70;;;4.30;;
2404;SDS011;1213;43.206;27.922;2023-09-19T09:48:35;4.93;;;4.53;;
2404;SDS011;1213;43.206;27.922;2023-09-19T09:51:04;4.10;;;3.70;;
2404;SDS011;1213;43.206;27.922;2023-09-19T09:53:33;6.17;;;5.00;;
2404;SDS011;1213;43.206;27.922;2023-09-19T09:58:27;6.23;;;5.67;;
2404;SDS011;1213;43.206;27.922;2023-09-19T10:00:57;5.93;;;4.27;;
2404;SDS011;1213;43.206;27.922;2023-09-19T10:03:31;11.20;;;4.50;;
2404;SDS011;1213;43.206;27.922;2023-09-19T10:05:57;7.37;;;4.60;;
2404;SDS011;1213;43.206;27.922;2023-09-19T10:08:23;5.43;;;4.93;;
2404;SDS011;1213;43.206;27.922;2023-09-19T10:10:48;3.87;;;3.57;;
2404;SDS011;1213;43.206;27.922;2023-09-19T10:13:28;4.90;;;4.10;;
2404;SDS011;1213;43.206;27.922;2023-09-19T10:15:55;5.93;;;4.30;;
2404;SDS011;1213;43.206;27.922;2023-09-19T10:18:24;6.67;;;5.30;;
2404;SDS011;1213;43.206;27.922;2023-09-19T10:20:50;15.53;;;4.97;;
2404;SDS011;1213;43.206;27.922;2023-09-19T10:23:17;4.47;;;3.87;;
2404;SDS011;1213;43.206;27.922;2023-09-19T10:25:47;5.80;;;4.33;;
2404;SDS011;1213;43.206;27.922;2023-09-19T10:28:13;5.00;;;3.63;;
2404;SDS011;1213;43.206;27.922;2023-09-19T10:33:09;5.17;;;4.20;;
2404;SDS011;1213;43.206;27.922;2023-09-19T10:35:34;4.63;;;4.10;;
2404;SDS011;1213;43.206;27.922;2023-09-19T10:38:05;6.47;;;4.10;;
2404;SDS011;1213;43.206;27.922;2023-09-19T10:40:32;6.13;;;4.50;;
2404;SDS011;1213;43.206;27.922;2023-09-19T10:42:59;8.20;;;7.40;;
2404;SDS011;1213;43.206;27.922;2023-09-19T10:45:25;5.00;;;4.07;;
2404;SDS011;1213;43.206;27.922;2023-09-19T10:47:51;6.73;;;3.77;;
2404;SDS011;1213;43.206;27.922;2023-09-19T10:50:20;6.27;;;4.13;;
2404;SDS011;1213;43.206;27.922;2023-09-19T10:52:46;8.80;;;4.20;;
2404;SDS011;1213;43.206;27.922;2023-09-19T10:55:17;4.40;;;3.97;;
2404;SDS011;1213;43.206;27.922;2023-09-19T10:57:47;5.90;;;4.40;;
2404;SDS011;1213;43.206;27.922;2023-09-19T11:00:13;5.23;;;4.73;;
2404;SDS011;1213;43.206;27.922;2023-09-19T11:05:32;6.30;;;4.60;;
2404;SDS011;1213;43.206;27.922;2023-09-19T11:07:58;9.53;;;5.30;;
2404;SDS011;1213;43.206;27.922;2023-09-19T11:10:45;7.10;;;4.50;;
2404;SDS011;1213;43.206;27.922;2023-09-19T11:13:26;5.33;;;4.57;;
2404;SDS011;1213;43.206;27.922;2023-09-19T11:24:11;5.10;;;4.60;;
2404;SDS011;1213;43.206;27.922;2023-09-19T11:26:44;4.80;;;4.43;;
2404;SDS011;1213;43.206;27.922;2023-09-19T11:31:51;6.00;;;5.40;;
2404;SDS011;1213;43.206;27.922;2023-09-19T11:37:00;6.93;;;4.77;;
2404;SDS011;1213;43.206;27.922;2023-09-19T11:39:26;4.80;;;4.40;;
2404;SDS011;1213;43.206;27.922;2023-09-19T11:41:52;4.93;;;4.40;;
2404;SDS011;1213;43.206;27.922;2023-09-19T11:46:55;7.73;;;4.60;;
2404;SDS011;1213;43.206;27.922;2023-09-19T11:49:27;5.33;;;4.73;;
2404;SDS011;1213;43.206;27.922;2023-09-19T11:51:55;4.80;;;4.33;;
2404;SDS011;1213;43.206;27.922;2023-09-19T11:54:20;6.97;;;6.07;;
2404;SDS011;1213;43.206;27.922;2023-09-19T11:56:53;4.77;;;4.33;;
2404;SDS011;1213;43.206;27.922;2023-09-19T11:59:28;5.60;;;5.10;;
2404;SDS011;1213;43.206;27.922;2023-09-19T12:02:03;4.47;;;4.03;;
2404;SDS011;1213;43.206;27.922;2023-09-19T12:06:58;8.57;;;5.87;;
2404;SDS011;1213;43.206;27.922;2023-09-19T12:09:24;7.70;;;4.83;;
2404;SDS011;1213;43.206;27.922;2023-09-19T12:11:50;5.37;;;4.57;;
2404;SDS011;1213;43.206;27.922;2023-09-19T12:14:22;4.90;;;4.50;;
2404;SDS011;1213;43.206;27.922;2023-09-19T12:16:56;5.87;;;4.57;;
2404;SDS011;1213;43.206;27.922;2023-09-19T12:19:22;5.73;;;4.23;;
2404;SDS011;1213;43.206;27.922;2023-09-19T12:21:58;5.23;;;4.73;;
2404;SDS011;1213;43.206;27.922;2023-09-19T12:24:25;5.83;;;5.33;;
2404;SDS011;1213;43.206;27.922;2023-09-19T12:26:52;5.87;;;4.40;;
2404;SDS011;1213;43.206;27.922;2023-09-19T12:29:18;5.40;;;4.90;;
2404;SDS011;1213;43.206;27.922;2023-09-19T12:32:01;6.10;;;4.60;;
2404;SDS011;1213;43.206;27.922;2023-09-19T12:34:30;4.77;;;4.37;;
2404;SDS011;1213;43.206;27.922;2023-09-19T12:39:38;5.30;;;4.90;;
2404;SDS011;1213;43.206;27.922;2023-09-19T12:42:03;5.07;;;4.40;;
2404;SDS011;1213;43.206;27.922;2023-09-19T12:44:31;7.97;;;5.87;;
2404;SDS011;1213;43.206;27.922;2023-09-19T12:46:58;5.07;;;4.20;;
2404;SDS011;1213;43.206;27.922;2023-09-19T12:49:24;5.30;;;4.40;;
2404;SDS011;1213;43.206;27.922;2023-09-19T12:51:54;5.43;;;4.90;;
2404;SDS011;1213;43.206;27.922;2023-09-19T12:54:19;6.47;;;4.77;;
2404;SDS011;1213;43.206;27.922;2023-09-19T12:56:47;7.40;;;4.50;;
2404;SDS011;1213;43.206;27.922;2023-09-19T12:59:15;6.27;;;4.90;;
2404;SDS011;1213;43.206;27.922;2023-09-19T13:01:41;4.93;;;4.43;;
2404;SDS011;1213;43.206;27.922;2023-09-19T13:04:19;5.70;;;5.20;;
2404;SDS011;1213;43.206;27.922;2023-09-19T13:06:45;7.67;;;6.70;;
2404;SDS011;1213;43.206;27.922;2023-09-19T13:09:12;9.43;;;8.47;;
2404;SDS011;1213;43.206;27.922;2023-09-19T13:11:39;8.00;;;5.50;;
2404;SDS011;1213;43.206;27.922;2023-09-19T13:14:22;4.97;;;4.57;;
2404;SDS011;1213;43.206;27.922;2023-09-19T13:24:50;6.93;;;5.60;;
2404;SDS011;1213;43.206;27.922;2023-09-19T13:27:16;4.50;;;4.10;;
2404;SDS011;1213;43.206;27.922;2023-09-19T13:29:41;5.07;;;4.40;;
2404;SDS011;1213;43.206;27.922;2023-09-19T13:32:07;4.90;;;4.47;;
2404;SDS011;1213;43.206;27.922;2023-09-19T13:34:36;5.13;;;4.47;;
2404;SDS011;1213;43.206;27.922;2023-09-19T13:37:08;5.00;;;4.50;;
2404;SDS011;1213;43.206;27.922;2023-09-19T13:39:35;8.30;;;4.10;;
2404;SDS011;1213;43.206;27.922;2023-09-19T13:42:01;4.93;;;3.90;;
2404;SDS011;1213;43.206;27.922;2023-09-19T13:44:28;5.20;;;4.07;;
2404;SDS011;1213;43.206;27.922;2023-09-19T13:46:54;4.60;;;4.20;;
2404;SDS011;1213;43.206;27.922;2023-09-19T13:49:21;5.70;;;5.20;;
2404;SDS011;1213;43.206;27.922;2023-09-19T13:51:48;4.50;;;4.10;;
2404;SDS011;1213;43.206;27.922;2023-09-19T13:54:13;16.63;;;11.93;;
2404;SDS011;1213;43.206;27.922;2023-09-19T13:56:39;6.70;;;5.37;;
2404;SDS011;1213;43.206;27.922;2023-09-19T13:59:04;7.37;;;5.33;;
2404;SDS011;1213;43.206;27.922;2023-09-19T14:01:29;7.30;;;5.10;;
2404;SDS011;1213;43.206;27.922;2023-09-19T14:03:55;5.87;;;4.70;;
2404;SDS011;1213;43.206;27.922;2023-09-19T14:06:22;4.50;;;4.10;;
2404;SDS011;1213;43.206;27.922;2023-09-19T14:08:47;5.83;;;4.00;;
2404;SDS011;1213;43.206;27.922;2023-09-19T14:11:13;6.70;;;4.43;;
2404;SDS011;1213;43.206;27.922;2023-09-19T14:13:39;5.37;;;4.87;;
2404;SDS011;1213;43.206;27.922;2023-09-19T14:16:05;14.17;;;7.30;;
2404;SDS011;1213;43.206;27.922;2023-09-19T14:18:31;4.73;;;4.33;;
2404;SDS011;1213;43.206;27.922;2023-09-19T14:20:56;4.90;;;4.40;;
2404;SDS011;1213;43.206;27.922;2023-09-19T14:23:22;9.83;;;4.57;;
2404;SDS011;1213;43.206;27.922;2023-09-19T14:25:52;5.63;;;4.40;;
2404;SDS011;1213;43.206;27.922;2023-09-19T14:28:19;6.90;;;5.60;;
2404;SDS011;1213;43.206;27.922;2023-09-19T14:30:44;6.23;;;4.17;;
2404;SDS011;1213;43.206;27.922;2023-09-19T14:33:09;7.53;;;4.97;;
2404;SDS011;1213;43.206;27.922;2023-09-19T14:35:36;4.90;;;3.93;;
2404;SDS011;1213;43.206;27.922;2023-09-19T14:38:02;7.20;;;5.87;;
2404;SDS011;1213;43.206;27.922;2023-09-19T14:40:27;4.80;;;3.87;;
2404;SDS011;1213;43.206;27.922;2023-09-19T14:42:52;6.00;;;4.50;;
2404;SDS011;1213;43.206;27.922;2023-09-19T14:45:18;8.77;;;7.87;;
2404;SDS011;1213;43.206;27.922;2023-09-19T14:47:43;8.27;;;6.57;;
2404;SDS011;1213;43.206;27.922;2023-09-19T14:50:09;5.30;;;4.80;;
2404;SDS011;1213;43.206;27.922;2023-09-19T14:52:35;5.33;;;4.83;;
2404;SDS011;1213;43.206;27.922;2023-09-19T14:55:01;9.37;;;4.67;;
2404;SDS011;1213;43.206;27.922;2023-09-19T14:57:26;6.90;;;4.53;;
2404;SDS011;1213;43.206;27.922;2023-09-19T14:59:52;5.80;;;5.23;;
2404;SDS011;1213;43.206;27.922;2023-09-19T15:02:18;7.00;;;4.50;;
2404;SDS011;1213;43.206;27.922;2023-09-19T15:04:44;6.03;;;4.67;;
2404;SDS011;1213;43.206;27.922;2023-09-19T15:07:11;6.60;;;4.97;;
2404;SDS011;1213;43.206;27.922;2023-09-19T15:09:37;4.43;;;3.93;;
2404;SDS011;1213;43.206;27.922;2023-09-19T15:12:02;8.83;;;4.90;;
2404;SDS011;1213;43.206;27.922;2023-09-19T15:14:28;4.60;;;4.20;;
2404;SDS011;1213;43.206;27.922;2023-09-19T15:16:54;5.63;;;4.13;;
2404;SDS011;1213;43.206;27.922;2023-09-19T15:19:20;10.10;;;4.07;;
2404;SDS011;1213;43.206;27.922;2023-09-19T15:21:47;6.70;;;5.03;;
2404;SDS011;1213;43.206;27.922;2023-09-19T15:24:12;4.37;;;4.07;;
2404;SDS011;1213;43.206;27.922;2023-09-19T15:26:37;7.67;;;6.40;;
2404;SDS011;1213;43.206;27.922;2023-09-19T15:29:06;7.63;;;5.30;;
2404;SDS011;1213;43.206;27.922;2023-09-19T15:31:32;5.20;;;4.30;;
2404;SDS011;1213;43.206;27.922;2023-09-19T15:33:57;4.23;;;3.87;;
2404;SDS011;1213;43.206;27.922;2023-09-19T15:36:23;4.80;;;4.20;;
2404;SDS011;1213;43.206;27.922;2023-09-19T15:39:04;4.77;;;4.37;;
2404;SDS011;1213;43.206;27.922;2023-09-19T15:41:32;8.07;;;5.60;;
2404;SDS011;1213;43.206;27.922;2023-09-19T15:43:57;5.17;;;4.67;;
2404;SDS011;1213;43.206;27.922;2023-09-19T15:46:26;8.07;;;4.80;;